Time;durP1;ratioP1;P1;durP2;ratioP2;P2;SDS_P1;SDS_P2;PMS_P1;PMS_P2;Temp;Humidity;BMP_temperature;BMP_pressure;BME280_temperature;BME280_humidity;BME280_pressure;Samples;Min_cycle;Max_cycle;Signal;HPM_P1;HPM_P2
2023/09/22 00:02:19;;;;;;;15.27;11.95;;;;;;;;;;4966806;28;20022;-77
2023/09/22 00:04:44;;;;;;;15.05;12.23;;;;;;;;;;4983652;28;20141;-77
2023/09/22 00:07:10;;;;;;;15.63;11.52;;;;;;;;;;4964005;28;20026;-78
2023/09/22 00:09:35;;;;;;;17.15;12.55;;;;;;;;;;4960783;28;20034;-77
2023/09/22 00:12:01;;;;;;;13.93;10.57;;;;;;;;;;4966370;28;20022;-81
2023/09/22 00:14:26;;;;;;;13.75;10.65;;;;;;;;;;4964646;28;20372;-81
2023/09/22 00:16:52;;;;;;;13.57;10.52;;;;;;;;;;4983352;28;20042;-80
2023/09/22 00:19:17;;;;;;;15.82;11.35;;;;;;;;;;4966534;28;20038;-81
2023/09/22 00:21:43;;;;;;;14.30;10.68;;;;;;;;;;4967714;28;20054;-81
2023/09/22 00:24:08;;;;;;;14.70;10.10;;;;;;;;;;4984669;28;20478;-81
2023/09/22 00:26:33;;;;;;;14.38;10.18;;;;;;;;;;4983147;28;20037;-81
2023/09/22 00:28:59;;;;;;;12.57;9.27;;;;;;;;;;4964043;28;20447;-81
2023/09/22 00:31:25;;;;;;;13.98;10.13;;;;;;;;;;4966659;28;20330;-81
2023/09/22 00:33:51;;;;;;;14.80;9.82;;;;;;;;;;4982190;28;20031;-81
2023/09/22 00:36:18;;;;;;;12.32;9.15;;;;;;;;;;4985258;28;20038;-77
2023/09/22 00:38:44;;;;;;;12.10;8.85;;;;;;;;;;4963870;28;20038;-84
2023/09/22 00:41:10;;;;;;;13.40;8.30;;;;;;;;;;4981236;28;20030;-86
2023/09/22 00:43:35;;;;;;;11.13;7.78;;;;;;;;;;4970747;28;20022;-85
2023/09/22 00:46:00;;;;;;;11.63;7.80;;;;;;;;;;4986144;28;20456;-86
2023/09/22 00:48:34;;;;;;;10.70;7.90;;;;;;;;;;4968897;28;20529;-85
2023/09/22 00:51:01;;;;;;;12.80;7.63;;;;;;;;;;4967763;28;20093;-82
2023/09/22 00:53:29;;;;;;;12.57;8.00;;;;;;;;;;4989670;28;20034;-85
2023/09/22 00:55:56;;;;;;;11.02;7.63;;;;;;;;;;4966493;28;20034;-85
2023/09/22 00:58:22;;;;;;;12.48;7.28;;;;;;;;;;4976491;28;20036;-77
2023/09/22 01:00:48;;;;;;;11.63;7.35;;;;;;;;;;4971871;28;20053;-77
2023/09/22 01:03:14;;;;;;;10.60;7.10;;;;;;;;;;4965871;28;20070;-77
2023/09/22 01:05:40;;;;;;;10.25;7.25;;;;;;;;;;4973603;28;20541;-77
2023/09/22 01:08:05;;;;;;;9.80;6.47;;;;;;;;;;4988881;28;20027;-78
2023/09/22 01:10:38;;;;;;;10.85;6.40;;;;;;;;;;4983688;28;20026;-76
2023/09/22 01:13:05;;;;;;;10.02;6.63;;;;;;;;;;4982557;28;20022;-76
2023/09/22 01:15:33;;;;;;;10.10;6.30;;;;;;;;;;4962504;28;20404;-77
2023/09/22 01:17:59;;;;;;;9.65;5.78;;;;;;;;;;4968036;28;20640;-76
2023/09/22 01:20:24;;;;;;;9.45;5.82;;;;;;;;;;4965294;28;20097;-78
2023/09/22 01:22:49;;;;;;;8.38;5.95;;;;;;;;;;4988537;28;20044;-77
2023/09/22 01:25:15;;;;;;;7.57;5.30;;;;;;;;;;4982937;28;20042;-76
2023/09/22 01:27:40;;;;;;;7.40;5.60;;;;;;;;;;4964283;28;20034;-76
2023/09/22 01:30:06;;;;;;;8.88;5.93;;;;;;;;;;4966031;28;20080;-77
2023/09/22 01:32:32;;;;;;;9.77;5.70;;;;;;;;;;4988919;28;20391;-76
2023/09/22 01:34:58;;;;;;;7.22;5.15;;;;;;;;;;4963788;28;20041;-77
2023/09/22 01:37:28;;;;;;;7.75;5.25;;;;;;;;;;4972353;28;20030;-78
2023/09/22 01:39:57;;;;;;;8.23;5.35;;;;;;;;;;4981880;28;20102;-76
2023/09/22 01:42:23;;;;;;;7.40;4.93;;;;;;;;;;4967357;28;20039;-77
2023/09/22 01:44:48;;;;;;;8.05;5.05;;;;;;;;;;4982253;28;20467;-80
2023/09/22 01:47:13;;;;;;;7.88;4.70;;;;;;;;;;4972062;28;20080;-77
2023/09/22 01:49:39;;;;;;;6.72;4.40;;;;;;;;;;4982905;28;20026;-76
2023/09/22 01:52:04;;;;;;;7.50;4.78;;;;;;;;;;4982163;28;20030;-76
2023/09/22 01:54:29;;;;;;;7.38;4.40;;;;;;;;;;4967908;28;20486;-76
2023/09/22 01:56:55;;;;;;;7.10;4.40;;;;;;;;;;4986719;28;20424;-76
2023/09/22 01:59:22;;;;;;;7.18;4.72;;;;;;;;;;4985273;28;20030;-77
2023/09/22 02:01:47;;;;;;;6.47;4.10;;;;;;;;;;4982214;28;20043;-86
2023/09/22 02:04:13;;;;;;;8.10;5.10;;;;;;;;;;4987234;28;20085;-86
2023/09/22 02:06:39;;;;;;;7.22;4.60;;;;;;;;;;4971997;28;20383;-85
2023/09/22 02:09:05;;;;;;;7.30;4.70;;;;;;;;;;4982244;28;20102;-86
2023/09/22 02:11:31;;;;;;;8.45;4.82;;;;;;;;;;4983400;28;20116;-85
2023/09/22 02:13:56;;;;;;;7.30;4.50;;;;;;;;;;4984004;28;20033;-77
2023/09/22 02:16:22;;;;;;;8.98;4.90;;;;;;;;;;4979285;28;20081;-77
2023/09/22 02:18:47;;;;;;;7.70;5.05;;;;;;;;;;4968448;28;20034;-77
2023/09/22 02:21:14;;;;;;;7.72;4.93;;;;;;;;;;4966687;28;20034;-77
2023/09/22 02:23:39;;;;;;;7.07;4.70;;;;;;;;;;4988562;28;20022;-77
2023/09/22 02:26:07;;;;;;;7.70;4.43;;;;;;;;;;4985909;28;20034;-77
2023/09/22 02:28:33;;;;;;;8.55;4.78;;;;;;;;;;4987258;28;20097;-77
2023/09/22 02:30:58;;;;;;;6.90;4.55;;;;;;;;;;4968684;28;20132;-77
2023/09/22 02:33:23;;;;;;;8.48;4.95;;;;;;;;;;4986007;28;20049;-77
2023/09/22 02:35:49;;;;;;;9.05;5.13;;;;;;;;;;4990979;28;20406;-77
2023/09/22 02:38:14;;;;;;;8.02;4.65;;;;;;;;;;4969232;28;20730;-77
2023/09/22 02:40:39;;;;;;;6.70;4.47;;;;;;;;;;4992152;28;20519;-77
2023/09/22 02:43:06;;;;;;;8.45;4.50;;;;;;;;;;4967716;28;20065;-77
2023/09/22 02:45:32;;;;;;;8.30;4.57;;;;;;;;;;4983955;28;20015;-78
2023/09/22 02:47:57;;;;;;;10.80;4.78;;;;;;;;;;4982899;28;20639;-77
2023/09/22 02:50:22;;;;;;;7.25;4.85;;;;;;;;;;4986366;28;20463;-77
2023/09/22 02:52:48;;;;;;;9.60;5.00;;;;;;;;;;4984563;28;20027;-77
2023/09/22 02:55:13;;;;;;;6.70;4.68;;;;;;;;;;4979878;28;20380;-77
2023/09/22 02:57:42;;;;;;;11.48;4.93;;;;;;;;;;4984848;28;20026;-77
2023/09/22 03:00:17;;;;;;;8.55;5.05;;;;;;;;;;4987748;28;20065;-77
2023/09/22 03:02:43;;;;;;;8.13;5.03;;;;;;;;;;4987770;28;20022;-77
2023/09/22 03:05:09;;;;;;;7.50;4.30;;;;;;;;;;4974410;28;20399;-78
2023/09/22 03:07:34;;;;;;;9.13;5.13;;;;;;;;;;4967588;28;20399;-77
2023/09/22 03:09:59;;;;;;;7.32;5.13;;;;;;;;;;4982534;28;20031;-77
2023/09/22 03:12:25;;;;;;;7.13;4.68;;;;;;;;;;4965556;28;20038;-77
2023/09/22 03:14:51;;;;;;;8.90;5.20;;;;;;;;;;4988600;28;20027;-77
2023/09/22 03:17:16;;;;;;;8.15;5.13;;;;;;;;;;4985495;28;20387;-76
2023/09/22 03:19:41;;;;;;;9.60;5.10;;;;;;;;;;4989152;28;20041;-76
2023/09/22 03:22:07;;;;;;;10.30;5.50;;;;;;;;;;4965645;28;20018;-76
2023/09/22 03:24:32;;;;;;;10.05;5.38;;;;;;;;;;4966969;28;20033;-77
2023/09/22 03:26:57;;;;;;;7.57;5.13;;;;;;;;;;4985710;28;20021;-77
2023/09/22 03:29:23;;;;;;;9.27;5.55;;;;;;;;;;4967075;28;20043;-76
2023/09/22 03:31:48;;;;;;;9.05;5.65;;;;;;;;;;4981545;28;20041;-77
2023/09/22 03:34:14;;;;;;;10.65;5.63;;;;;;;;;;4965986;28;20113;-77
2023/09/22 03:36:41;;;;;;;10.18;5.57;;;;;;;;;;4985640;28;20113;-77
2023/09/22 03:39:12;;;;;;;9.48;5.63;;;;;;;;;;4969138;28;20069;-76
2023/09/22 03:41:37;;;;;;;9.18;4.80;;;;;;;;;;4983025;28;20027;-76
2023/09/22 03:44:04;;;;;;;10.10;5.95;;;;;;;;;;4964509;28;20037;-76
2023/09/22 03:46:30;;;;;;;9.05;5.30;;;;;;;;;;4966196;28;20030;-77
2023/09/22 03:48:55;;;;;;;9.75;5.40;;;;;;;;;;4990567;28;20022;-76
2023/09/22 03:51:21;;;;;;;7.78;5.05;;;;;;;;;;4973746;28;20026;-77
2023/09/22 03:53:46;;;;;;;8.07;4.72;;;;;;;;;;4985223;28;20105;-77
2023/09/22 03:56:12;;;;;;;8.20;5.70;;;;;;;;;;4966037;28;20038;-76
2023/09/22 03:58:37;;;;;;;10.25;4.75;;;;;;;;;;4981828;28;20034;-77
2023/09/22 04:01:08;;;;;;;11.05;5.00;;;;;;;;;;4965033;28;20033;-76
2023/09/22 04:03:33;;;;;;;8.70;5.13;;;;;;;;;;4971103;28;20026;-76
2023/09/22 04:05:59;;;;;;;8.35;4.93;;;;;;;;;;4966603;28;20125;-76
2023/09/22 04:08:24;;;;;;;8.00;4.78;;;;;;;;;;4966109;28;20053;-85
2023/09/22 04:10:50;;;;;;;10.73;4.90;;;;;;;;;;4964351;28;20023;-86
2023/09/22 04:13:15;;;;;;;12.25;5.07;;;;;;;;;;4988989;28;20382;-86
2023/09/22 04:15:41;;;;;;;12.43;5.53;;;;;;;;;;4970575;28;20475;-86
2023/09/22 04:18:07;;;;;;;8.85;4.43;;;;;;;;;;4989688;28;20018;-85
2023/09/22 04:20:33;;;;;;;8.32;4.47;;;;;;;;;;4976867;28;20022;-86
2023/09/22 04:22:59;;;;;;;9.23;4.25;;;;;;;;;;4982355;28;20444;-80
2023/09/22 04:25:33;;;;;;;6.35;4.40;;;;;;;;;;4986240;28;20049;-86
2023/09/22 04:28:09;;;;;;;8.48;5.00;;;;;;;;;;4984997;28;20045;-86
2023/09/22 04:30:36;;;;;;;6.55;3.90;;;;;;;;;;4985436;28;20049;-86
2023/09/22 04:33:02;;;;;;;7.78;4.53;;;;;;;;;;4987016;28;20026;-85
2023/09/22 04:35:28;;;;;;;10.32;3.75;;;;;;;;;;4992997;28;20036;-86
2023/09/22 04:37:54;;;;;;;7.57;4.32;;;;;;;;;;4986737;28;20023;-85
2023/09/22 04:40:27;;;;;;;6.63;3.58;;;;;;;;;;4988589;28;20033;-84
2023/09/22 04:42:53;;;;;;;6.63;3.58;;;;;;;;;;4980393;28;20034;-84
2023/09/22 04:45:19;;;;;;;7.93;3.50;;;;;;;;;;4985762;28;20033;-86
2023/09/22 04:47:49;;;;;;;7.70;4.05;;;;;;;;;;4981202;28;20030;-86
2023/09/22 04:50:17;;;;;;;6.03;3.80;;;;;;;;;;4983350;28;20073;-83
2023/09/22 04:52:43;;;;;;;6.80;3.50;;;;;;;;;;4984487;28;20498;-82
2023/09/22 04:55:09;;;;;;;7.07;3.60;;;;;;;;;;4983311;28;20501;-84
2023/09/22 04:57:34;;;;;;;7.22;3.58;;;;;;;;;;4987416;28;20034;-85
2023/09/22 05:00:00;;;;;;;6.88;3.50;;;;;;;;;;4972424;28;20022;-81
2023/09/22 05:02:25;;;;;;;4.85;2.92;;;;;;;;;;4967707;28;20383;-80
2023/09/22 05:04:51;;;;;;;6.80;2.80;;;;;;;;;;4977673;28;20540;-77
2023/09/22 05:07:17;;;;;;;7.60;2.95;;;;;;;;;;4987200;28;20022;-76
2023/09/22 05:09:43;;;;;;;4.60;2.75;;;;;;;;;;4957266;28;20023;-76
2023/09/22 05:12:09;;;;;;;5.45;2.80;;;;;;;;;;4972498;28;20042;-77
2023/09/22 05:14:35;;;;;;;5.97;2.33;;;;;;;;;;4988930;28;20063;-76
2023/09/22 05:17:00;;;;;;;6.90;2.80;;;;;;;;;;4966581;28;20066;-85
2023/09/22 05:19:25;;;;;;;4.70;2.20;;;;;;;;;;4976020;28;20492;-84
2023/09/22 05:21:51;;;;;;;4.57;2.42;;;;;;;;;;4972277;28;20018;-85
2023/09/22 05:24:17;;;;;;;4.55;2.20;;;;;;;;;;4968490;28;20498;-77
2023/09/22 05:26:42;;;;;;;3.97;2.50;;;;;;;;;;4982712;28;20034;-77
2023/09/22 05:29:07;;;;;;;5.28;2.50;;;;;;;;;;4983624;28;20031;-77
2023/09/22 05:31:36;;;;;;;5.07;2.45;;;;;;;;;;4971322;28;20033;-77
2023/09/22 05:34:02;;;;;;;4.25;2.22;;;;;;;;;;4983975;28;20398;-78
2023/09/22 05:36:29;;;;;;;4.47;2.20;;;;;;;;;;4991637;28;20029;-77
2023/09/22 05:38:55;;;;;;;7.57;3.15;;;;;;;;;;4989984;28;20125;-77
2023/09/22 05:41:20;;;;;;;5.55;2.20;;;;;;;;;;4969166;28;20114;-77
2023/09/22 05:43:46;;;;;;;3.72;2.10;;;;;;;;;;4968514;28;20022;-76
2023/09/22 05:46:11;;;;;;;4.28;2.20;;;;;;;;;;4984456;28;20088;-77
2023/09/22 05:48:37;;;;;;;5.93;2.58;;;;;;;;;;4982707;28;20026;-77
2023/09/22 05:51:03;;;;;;;4.93;2.40;;;;;;;;;;4966443;28;20478;-77
2023/09/22 05:53:29;;;;;;;4.00;2.10;;;;;;;;;;4969637;28;20891;-78
2023/09/22 05:56:02;;;;;;;5.30;2.03;;;;;;;;;;4985993;28;20027;-77
2023/09/22 05:58:27;;;;;;;3.33;1.92;;;;;;;;;;4983469;28;20117;-77
2023/09/22 06:00:53;;;;;;;4.38;2.10;;;;;;;;;;4983813;28;20130;-78
2023/09/22 06:03:19;;;;;;;6.07;2.30;;;;;;;;;;4969952;28;20640;-76
2023/09/22 06:05:46;;;;;;;4.10;2.15;;;;;;;;;;4973639;28;20022;-84
2023/09/22 06:08:11;;;;;;;5.47;2.00;;;;;;;;;;4987842;28;20509;-85
2023/09/22 06:10:37;;;;;;;4.55;2.17;;;;;;;;;;4985922;28;20023;-85
2023/09/22 06:13:02;;;;;;;4.47;2.20;;;;;;;;;;4990886;28;20065;-85
2023/09/22 06:15:28;;;;;;;4.55;2.00;;;;;;;;;;4966790;28;20042;-80
2023/09/22 06:17:54;;;;;;;4.80;2.15;;;;;;;;;;4984559;28;20023;-84
2023/09/22 06:20:20;;;;;;;4.28;1.77;;;;;;;;;;4970368;28;20100;-85
2023/09/22 06:22:49;;;;;;;4.18;2.10;;;;;;;;;;4949681;28;20038;-83
2023/09/22 06:25:15;;;;;;;4.25;2.30;;;;;;;;;;4983874;28;20022;-84
2023/09/22 06:27:41;;;;;;;5.00;2.30;;;;;;;;;;4970223;28;20092;-77
2023/09/22 06:30:11;;;;;;;6.55;2.28;;;;;;;;;;4969146;28;20018;-77
2023/09/22 06:32:44;;;;;;;4.10;2.28;;;;;;;;;;4973404;28;20030;-77
2023/09/22 06:35:10;;;;;;;4.20;2.22;;;;;;;;;;4983991;28;20418;-78
2023/09/22 06:37:36;;;;;;;5.13;2.40;;;;;;;;;;4966109;28;20038;-81
2023/09/22 06:40:10;;;;;;;5.88;2.20;;;;;;;;;;5001119;28;20509;-86
2023/09/22 06:42:36;;;;;;;4.30;2.03;;;;;;;;;;4986083;28;20023;-85
2023/09/22 06:45:02;;;;;;;9.98;3.28;;;;;;;;;;4968463;28;20030;-84
2023/09/22 06:47:28;;;;;;;4.47;2.47;;;;;;;;;;4964491;28;20038;-84
2023/09/22 06:49:55;;;;;;;6.82;2.85;;;;;;;;;;4964395;28;20031;-82
2023/09/22 06:52:20;;;;;;;7.03;2.35;;;;;;;;;;4980814;28;20421;-86
2023/09/22 06:54:46;;;;;;;4.80;2.30;;;;;;;;;;4985526;28;20029;-84
2023/09/22 06:57:11;;;;;;;3.72;1.95;;;;;;;;;;4969663;28;20050;-85
2023/09/22 06:59:36;;;;;;;4.28;2.45;;;;;;;;;;4990441;28;20033;-81
2023/09/22 07:02:03;;;;;;;6.50;2.40;;;;;;;;;;4974236;28;20038;-85
2023/09/22 07:04:29;;;;;;;6.47;2.20;;;;;;;;;;4972412;28;20893;-85
2023/09/22 07:06:54;;;;;;;5.72;2.10;;;;;;;;;;4984794;28;20030;-85
2023/09/22 07:09:20;;;;;;;4.20;2.10;;;;;;;;;;4970621;28;20410;-85
2023/09/22 07:11:45;;;;;;;4.88;2.30;;;;;;;;;;4969194;28;20058;-84
2023/09/22 07:14:10;;;;;;;5.53;2.08;;;;;;;;;;4968229;28;20031;-84
2023/09/22 07:16:36;;;;;;;4.03;2.05;;;;;;;;;;4990851;28;20345;-84
2023/09/22 07:19:02;;;;;;;3.38;1.90;;;;;;;;;;4968714;28;20032;-77
2023/09/22 07:21:28;;;;;;;3.50;1.90;;;;;;;;;;4986507;28;20072;-76
2023/09/22 07:23:55;;;;;;;5.43;2.08;;;;;;;;;;4966974;28;20065;-76
2023/09/22 07:26:21;;;;;;;5.88;2.15;;;;;;;;;;4979762;28;20026;-77
2023/09/22 07:28:46;;;;;;;3.60;1.83;;;;;;;;;;4967958;28;20502;-76
2023/09/22 07:31:18;;;;;;;4.28;1.75;;;;;;;;;;4964579;28;20026;-76
2023/09/22 07:33:44;;;;;;;4.13;1.60;;;;;;;;;;4966135;28;20089;-77
2023/09/22 07:36:11;;;;;;;4.30;1.70;;;;;;;;;;4965727;28;20026;-77
2023/09/22 07:38:37;;;;;;;4.30;1.90;;;;;;;;;;4983200;28;20532;-77
2023/09/22 07:41:03;;;;;;;4.38;1.83;;;;;;;;;;4985446;28;20038;-80
2023/09/22 07:43:29;;;;;;;5.18;1.95;;;;;;;;;;4966168;28;20023;-77
2023/09/22 07:45:56;;;;;;;4.18;1.73;;;;;;;;;;4989262;28;20109;-75
2023/09/22 07:48:21;;;;;;;6.47;1.85;;;;;;;;;;4987387;28;20026;-79
2023/09/22 07:50:47;;;;;;;3.72;1.35;;;;;;;;;;4968000;28;20058;-77
2023/09/22 07:53:12;;;;;;;5.10;1.83;;;;;;;;;;4956471;28;20130;-77
2023/09/22 07:55:38;;;;;;;4.07;1.60;;;;;;;;;;4969111;28;20026;-76
2023/09/22 07:58:03;;;;;;;3.97;1.55;;;;;;;;;;4966268;28;20375;-77
2023/09/22 08:00:29;;;;;;;3.72;1.35;;;;;;;;;;4966411;28;20041;-78
2023/09/22 08:02:54;;;;;;;4.10;1.23;;;;;;;;;;4982010;28;20431;-77
2023/09/22 08:05:21;;;;;;;3.25;1.33;;;;;;;;;;4982552;28;20073;-76
2023/09/22 08:07:51;;;;;;;2.22;1.30;;;;;;;;;;4987214;28;20042;-77
2023/09/22 08:10:18;;;;;;;2.42;1.30;;;;;;;;;;4974187;28;20113;-77
2023/09/22 08:12:44;;;;;;;4.57;1.40;;;;;;;;;;4987075;28;20030;-77
2023/09/22 08:15:10;;;;;;;6.35;1.77;;;;;;;;;;4978475;28;20030;-77
2023/09/22 08:17:35;;;;;;;3.45;1.48;;;;;;;;;;4962906;28;20029;-76
2023/09/22 08:20:02;;;;;;;4.22;1.25;;;;;;;;;;4988792;28;20022;-77
2023/09/22 08:22:27;;;;;;;3.10;1.30;;;;;;;;;;4989287;28;20084;-76
2023/09/22 08:24:53;;;;;;;4.97;1.30;;;;;;;;;;4984357;28;20022;-77
2023/09/22 08:27:19;;;;;;;2.80;1.42;;;;;;;;;;4971578;28;20022;-77
2023/09/22 08:29:47;;;;;;;3.10;1.20;;;;;;;;;;4984296;28;20041;-77
2023/09/22 08:32:12;;;;;;;5.57;1.40;;;;;;;;;;4997002;28;20026;-76
2023/09/22 08:34:38;;;;;;;3.55;1.10;;;;;;;;;;4963757;28;20041;-77
2023/09/22 08:37:03;;;;;;;1.88;0.90;;;;;;;;;;4962862;28;20054;-78
2023/09/22 08:39:30;;;;;;;1.90;0.98;;;;;;;;;;4966192;28;20022;-77
2023/09/22 08:41:55;;;;;;;4.63;1.17;;;;;;;;;;4971591;28;20846;-77
2023/09/22 08:44:21;;;;;;;2.88;0.90;;;;;;;;;;4970167;28;20030;-77
2023/09/22 08:46:47;;;;;;;4.72;1.63;;;;;;;;;;4968620;28;20042;-76
2023/09/22 08:49:13;;;;;;;3.53;1.00;;;;;;;;;;4988444;28;20412;-77
2023/09/22 08:51:38;;;;;;;3.45;1.42;;;;;;;;;;4966506;28;20060;-76
2023/09/22 08:54:04;;;;;;;4.13;1.63;;;;;;;;;;4971693;28;20026;-78
2023/09/22 08:56:30;;;;;;;3.97;1.23;;;;;;;;;;4972412;28;20026;-78
2023/09/22 08:58:55;;;;;;;2.22;1.13;;;;;;;;;;4967039;28;20026;-78
2023/09/22 09:01:21;;;;;;;2.75;1.23;;;;;;;;;;4985681;28;20402;-77
2023/09/22 09:03:46;;;;;;;2.88;1.10;;;;;;;;;;4982463;28;20368;-77
2023/09/22 09:06:17;;;;;;;2.13;1.15;;;;;;;;;;4990679;28;20029;-77
2023/09/22 09:09:02;;;;;;;2.70;1.05;;;;;;;;;;4969083;28;20030;-77
2023/09/22 09:11:28;;;;;;;2.05;1.10;;;;;;;;;;4989851;28;20117;-77
2023/09/22 09:13:54;;;;;;;1.48;0.82;;;;;;;;;;4989461;28;20113;-77
2023/09/22 09:16:30;;;;;;;3.33;1.05;;;;;;;;;;4972750;28;20022;-77
2023/09/22 09:19:14;;;;;;;3.92;1.10;;;;;;;;;;4965578;28;20061;-77
2023/09/22 09:21:59;;;;;;;;;;;;;;;;;;4982107;28;20054;-77
2023/09/22 09:24:24;;;;;;;4.88;0.90;;;;;;;;;;4986105;28;19914;-77
2023/09/22 09:26:51;;;;;;;3.35;1.10;;;;;;;;;;4989481;28;20034;-77
2023/09/22 09:29:29;;;;;;;3.40;1.00;;;;;;;;;;4992514;28;20540;-77
2023/09/22 09:31:55;;;;;;;2.83;0.73;;;;;;;;;;4970223;28;20026;-77
2023/09/22 09:34:23;;;;;;;3.70;1.05;;;;;;;;;;4987479;28;20591;-77
2023/09/22 09:37:08;;;;;;;2.15;0.70;;;;;;;;;;4970263;28;20528;-78
2023/09/22 09:39:53;;;;;;;3.97;1.10;;;;;;;;;;4973247;28;20391;-77
2023/09/22 09:42:22;;;;;;;1.35;0.90;;;;;;;;;;4988044;28;20034;-77
2023/09/22 09:44:52;;;;;;;3.00;1.20;;;;;;;;;;4983787;28;20470;-77
2023/09/22 09:47:32;;;;;;;2.80;0.98;;;;;;;;;;4981222;28;20026;-77
2023/09/22 09:49:58;;;;;;;6.00;1.10;;;;;;;;;;4983965;28;20029;-77
2023/09/22 09:52:52;;;;;;;3.25;0.90;;;;;;;;;;4983245;28;20113;-77
2023/09/22 09:55:20;;;;;;;2.80;0.82;;;;;;;;;;4957826;28;20044;-77
2023/09/22 09:57:46;;;;;;;3.53;1.00;;;;;;;;;;4988998;28;20018;-78
2023/09/22 10:00:14;;;;;;;2.35;0.95;;;;;;;;;;4983511;28;20026;-77
2023/09/22 10:02:44;;;;;;;3.00;0.90;;;;;;;;;;4970377;28;20045;-78
2023/09/22 10:05:23;;;;;;;2.67;0.93;;;;;;;;;;4985153;28;20038;-77
2023/09/22 10:07:50;;;;;;;1.85;0.80;;;;;;;;;;4991851;28;21157;-79
2023/09/22 10:10:19;;;;;;;1.75;0.63;;;;;;;;;;4986372;28;20386;-77
2023/09/22 10:12:45;;;;;;;2.13;0.88;;;;;;;;;;4965122;28;20042;-76
2023/09/22 10:15:12;;;;;;;3.95;0.80;;;;;;;;;;4974870;28;20038;-77
2023/09/22 10:17:38;;;;;;;1.40;0.80;;;;;;;;;;4968118;28;20023;-85
2023/09/22 10:20:13;;;;;;;1.48;0.73;;;;;;;;;;4975768;28;20417;-85
2023/09/22 10:22:39;;;;;;;2.85;1.00;;;;;;;;;;4963360;28;20026;-86
2023/09/22 10:25:13;;;;;;;3.72;1.13;;;;;;;;;;4988263;28;20045;-77
2023/09/22 10:27:58;;;;;;;1.83;0.80;;;;;;;;;;4964234;28;20038;-77
2023/09/22 10:30:30;;;;;;;1.38;0.70;;;;;;;;;;4988342;28;20022;-78
2023/09/22 10:33:26;;;;;;;3.08;0.70;;;;;;;;;;4981766;28;20023;-77
2023/09/22 10:35:53;;;;;;;1.67;1.02;;;;;;;;;;4984813;28;20093;-77
2023/09/22 10:38:20;;;;;;;2.47;1.05;;;;;;;;;;4983878;28;20565;-78
2023/09/22 10:40:58;;;;;;;2.08;0.80;;;;;;;;;;4965000;28;20030;-78
2023/09/22 10:43:23;;;;;;;2.33;0.80;;;;;;;;;;4980289;28;20060;-77
2023/09/22 10:45:51;;;;;;;3.08;0.80;;;;;;;;;;4964579;28;20058;-77
2023/09/22 10:48:17;;;;;;;5.57;0.90;;;;;;;;;;4971013;28;20033;-78
2023/09/22 10:50:48;;;;;;;1.55;0.75;;;;;;;;;;4986483;28;20036;-77
2023/09/22 10:53:13;;;;;;;2.50;0.90;;;;;;;;;;4984136;28;20117;-76
2023/09/22 10:55:41;;;;;;;4.00;0.73;;;;;;;;;;4968867;28;20434;-77
2023/09/22 10:58:16;;;;;;;1.23;0.63;;;;;;;;;;4962629;28;20475;-77
2023/09/22 11:00:56;;;;;;;2.35;0.73;;;;;;;;;;4965010;28;20411;-76
2023/09/22 11:03:22;;;;;;;1.95;1.00;;;;;;;;;;4970461;28;20034;-77
2023/09/22 11:05:57;;;;;;;2.22;0.70;;;;;;;;;;4986817;28;20719;-78
2023/09/22 11:08:23;;;;;;;2.00;0.90;;;;;;;;;;4986090;28;20474;-77
2023/09/22 11:10:50;;;;;;;2.28;0.90;;;;;;;;;;4984374;28;20026;-78
2023/09/22 11:13:16;;;;;;;2.65;0.88;;;;;;;;;;4964074;28;20030;-83
2023/09/22 11:15:49;;;;;;;2.90;1.10;;;;;;;;;;4991954;28;20034;-80
2023/09/22 11:18:35;;;;;;;1.60;0.73;;;;;;;;;;4981384;28;20030;-84
2023/09/22 11:21:08;;;;;;;3.00;1.23;;;;;;;;;;4982924;28;20503;-84
2023/09/22 11:23:36;;;;;;;;;;;;;;;;;;4987375;28;20038;-83
2023/09/22 11:26:10;;;;;;;3.15;0.82;;;;;;;;;;4968588;28;19929;-84
2023/09/22 11:28:43;;;;;;;2.33;0.90;;;;;;;;;;4963767;28;20042;-83
2023/09/22 11:31:12;;;;;;;1.95;0.80;;;;;;;;;;4969577;28;20041;-84
2023/09/22 11:33:39;;;;;;;1.85;0.80;;;;;;;;;;4982125;28;20027;-84
2023/09/22 11:36:05;;;;;;;2.33;1.00;;;;;;;;;;4991624;28;20030;-84
2023/09/22 11:38:32;;;;;;;1.30;0.70;;;;;;;;;;4971098;28;20505;-86
2023/09/22 11:41:12;;;;;;;4.65;0.73;;;;;;;;;;4988159;28;20034;-86
2023/09/22 11:43:38;;;;;;;1.45;0.70;;;;;;;;;;4992734;28;20381;-85
2023/09/22 11:46:20;;;;;;;3.30;0.70;;;;;;;;;;4966566;28;20023;-85
2023/09/22 11:49:05;;;;;;;3.53;0.90;;;;;;;;;;4966535;28;20473;-86
2023/09/22 11:51:40;;;;;;;1.65;0.70;;;;;;;;;;4966669;28;20121;-79
2023/09/22 11:54:09;;;;;;;2.00;0.80;;;;;;;;;;4986130;28;20364;-78
2023/09/22 11:56:35;;;;;;;2.15;0.70;;;;;;;;;;4988113;28;20029;-78
2023/09/22 11:59:08;;;;;;;2.55;0.85;;;;;;;;;;4989283;28;20034;-79
2023/09/22 12:01:34;;;;;;;2.50;0.73;;;;;;;;;;4987749;28;20034;-77
2023/09/22 12:03:59;;;;;;;1.95;0.77;;;;;;;;;;4971808;28;20098;-78
2023/09/22 12:06:25;;;;;;;1.90;0.90;;;;;;;;;;4974906;28;20035;-79
2023/09/22 12:08:51;;;;;;;5.50;1.00;;;;;;;;;;4985088;28;20146;-79
2023/09/22 12:11:16;;;;;;;1.55;0.68;;;;;;;;;;4991076;28;20030;-78
2023/09/22 12:13:43;;;;;;;3.88;0.80;;;;;;;;;;4977748;28;20033;-77
2023/09/22 12:16:08;;;;;;;1.10;0.47;;;;;;;;;;4992846;28;20483;-79
2023/09/22 12:18:33;;;;;;;1.83;0.60;;;;;;;;;;4989369;28;20101;-79
2023/09/22 12:20:59;;;;;;;3.15;0.70;;;;;;;;;;4971327;28;20031;-78
2023/09/22 12:23:24;;;;;;;2.42;0.60;;;;;;;;;;4987654;28;20502;-78
2023/09/22 12:25:52;;;;;;;3.65;0.93;;;;;;;;;;4963485;28;20651;-78
2023/09/22 12:28:18;;;;;;;1.92;0.63;;;;;;;;;;4973566;28;20038;-78
2023/09/22 12:30:43;;;;;;;1.98;0.80;;;;;;;;;;4971709;28;20109;-78
2023/09/22 12:33:09;;;;;;;2.08;0.73;;;;;;;;;;4988868;28;20111;-78
2023/09/22 12:35:35;;;;;;;3.97;1.00;;;;;;;;;;4986137;28;20026;-79
2023/09/22 12:38:00;;;;;;;5.00;0.82;;;;;;;;;;4987738;28;20052;-78
2023/09/22 12:40:26;;;;;;;3.33;0.80;;;;;;;;;;4973847;28;20029;-78
2023/09/22 12:42:52;;;;;;;3.58;0.70;;;;;;;;;;4993711;28;20671;-78
2023/09/22 12:45:19;;;;;;;1.92;0.80;;;;;;;;;;4965578;28;20644;-84
2023/09/22 12:47:44;;;;;;;1.85;0.73;;;;;;;;;;4986453;28;20049;-85
2023/09/22 12:50:10;;;;;;;2.08;0.70;;;;;;;;;;4981673;28;20031;-84
2023/09/22 12:52:37;;;;;;;2.83;0.80;;;;;;;;;;4982027;28;20085;-85
2023/09/22 12:55:04;;;;;;;1.58;0.77;;;;;;;;;;4988371;28;20030;-85
2023/09/22 12:57:29;;;;;;;2.25;0.80;;;;;;;;;;4974907;28;20406;-85
2023/09/22 12:59:57;;;;;;;0.95;0.50;;;;;;;;;;4984838;28;20033;-83
2023/09/22 13:02:22;;;;;;;1.23;0.50;;;;;;;;;;4989351;28;20105;-85
2023/09/22 13:04:48;;;;;;;2.42;0.80;;;;;;;;;;4968774;28;20464;-84
2023/09/22 13:07:17;;;;;;;3.13;0.80;;;;;;;;;;4954889;28;20045;-82
2023/09/22 13:09:44;;;;;;;4.00;1.00;;;;;;;;;;4970647;28;20130;-83
2023/09/22 13:12:09;;;;;;;1.48;0.70;;;;;;;;;;4972784;28;20038;-83
2023/09/22 13:14:35;;;;;;;2.30;0.93;;;;;;;;;;4977979;28;20434;-83
2023/09/22 13:17:01;;;;;;;1.70;0.73;;;;;;;;;;4977826;28;20039;-83
2023/09/22 13:19:27;;;;;;;4.75;0.80;;;;;;;;;;4979425;28;20078;-83
2023/09/22 13:21:53;;;;;;;1.83;0.70;;;;;;;;;;4977634;28;20019;-78
2023/09/22 13:24:18;;;;;;;1.77;0.73;;;;;;;;;;4979084;28;20085;-78
2023/09/22 13:26:44;;;;;;;2.30;0.70;;;;;;;;;;4984167;28;20065;-78
2023/09/22 13:29:09;;;;;;;4.63;0.80;;;;;;;;;;4987348;28;20039;-77
2023/09/22 13:31:34;;;;;;;2.60;0.77;;;;;;;;;;4984705;28;20152;-78
2023/09/22 13:34:00;;;;;;;2.85;1.35;;;;;;;;;;4980631;28;20075;-80
2023/09/22 13:36:26;;;;;;;2.20;0.90;;;;;;;;;;4982322;28;20030;-78
2023/09/22 13:38:52;;;;;;;2.22;0.80;;;;;;;;;;4976571;28;20110;-78
2023/09/22 13:41:17;;;;;;;2.08;0.90;;;;;;;;;;4965667;28;20042;-78
2023/09/22 13:43:45;;;;;;;3.55;0.88;;;;;;;;;;4983248;28;20390;-78
2023/09/22 13:46:14;;;;;;;4.15;0.80;;;;;;;;;;4964820;28;20452;-78
2023/09/22 13:48:40;;;;;;;2.85;0.70;;;;;;;;;;4980217;28;20458;-78
2023/09/22 13:51:06;;;;;;;2.85;0.80;;;;;;;;;;4979289;28;21333;-78
2023/09/22 13:53:36;;;;;;;2.25;0.90;;;;;;;;;;4979506;28;20479;-79
2023/09/22 13:56:01;;;;;;;1.88;0.75;;;;;;;;;;4986959;28;20035;-78
2023/09/22 13:58:28;;;;;;;2.40;0.90;;;;;;;;;;4964984;28;20042;-78
2023/09/22 14:00:54;;;;;;;2.42;0.95;;;;;;;;;;4977974;28;20054;-79
2023/09/22 14:03:20;;;;;;;2.70;0.80;;;;;;;;;;4980291;28;20514;-78
2023/09/22 14:05:46;;;;;;;3.63;1.00;;;;;;;;;;4979824;28;20477;-78
2023/09/22 14:08:14;;;;;;;3.97;1.05;;;;;;;;;;4966295;28;20026;-78
2023/09/22 14:10:39;;;;;;;1.35;0.80;;;;;;;;;;4978822;28;20019;-78
2023/09/22 14:13:05;;;;;;;3.05;1.20;;;;;;;;;;4965936;28;20049;-77
2023/09/22 14:15:30;;;;;;;1.77;0.75;;;;;;;;;;4959256;28;20446;-78
2023/09/22 14:17:57;;;;;;;2.40;1.10;;;;;;;;;;4961774;28;20126;-79
2023/09/22 14:20:22;;;;;;;2.35;0.70;;;;;;;;;;4984310;28;20498;-78
2023/09/22 14:22:48;;;;;;;2.67;0.90;;;;;;;;;;4977677;28;20034;-77
2023/09/22 14:25:14;;;;;;;3.03;1.00;;;;;;;;;;4975813;28;20474;-77
2023/09/22 14:27:39;;;;;;;3.05;0.90;;;;;;;;;;4956087;28;20033;-77
2023/09/22 14:30:07;;;;;;;2.38;1.02;;;;;;;;;;4966255;28;20015;-77
2023/09/22 14:32:36;;;;;;;3.45;1.00;;;;;;;;;;4985318;28;20487;-77
2023/09/22 14:35:02;;;;;;;1.98;0.80;;;;;;;;;;4963640;28;20067;-77
2023/09/22 14:37:27;;;;;;;3.28;1.02;;;;;;;;;;4986429;28;20034;-77
2023/09/22 14:39:56;;;;;;;3.22;0.90;;;;;;;;;;4967804;28;20037;-78
2023/09/22 14:42:23;;;;;;;2.78;0.90;;;;;;;;;;4987420;28;20061;-77